Latest Weather Observations for Amberley

IDQ60901

Issued at 2:25 pm EST Thursday 2 October 2014 (issued every 10 minutes, with the page automatically refreshed every 10 minutes)

About weather observations | Map of Brisbane area stations | Latest observations for Brisbane area | Other Formats
Station Details ID: 040004 Name: AMBERLEY AMO Lat: -27.63 Lon: 152.71 Height: 24.2 m
Data from the previous 72 hours. | See also: Recent months at Amberley
Date/Time
EST
Tmp

°C
App
Tmp
°C
Dew
Point
°C
Rel
Hum
%
Delta-T

°C
Wind Press
QNH
hPa
Press
MSL
hPa
Rain
since
9 am
mm
Dir
 
Spd
km/h
Gust
km/h
Spd
kts
Gust
kts
02/02:00pm 23.5 18.7 8.7 39 7.9 ENE 24 32 13 17 1019.1 - 0.0
02/01:30pm 23.2 19.9 8.2 38 7.9 E 15 26 8 14 1019.5 - 0.0
02/01:00pm 23.1 18.7 9.1 41 7.5 E 22 30 12 16 1019.7 - 0.0
02/12:30pm 23.8 20.5 8.1 36 8.3 ENE 15 30 8 16 1020.0 - 0.0
02/12:00pm 23.6 20.4 8.3 37 8.1 NE 15 28 8 15 1020.4 1020.4 0.0
02/11:30am 23.5 20.0 8.7 39 7.9 NE 17 26 9 14 1020.8 - 0.0
02/11:00am 23.2 19.1 8.7 39 7.7 E 20 32 11 17 1021.2 - 0.0
02/10:30am 21.5 18.8 9.1 45 6.6 NE 13 24 7 13 1021.7 - 0.0
02/10:00am 22.5 19.8 9.0 42 7.2 E 13 20 7 11 1021.8 - 0.0
02/09:30am 21.0 19.1 8.9 46 6.4 NNE 9 13 5 7 1022.1 - 0.0
02/09:00am 20.8 17.9 8.3 44 6.5 E 13 24 7 13 1022.2 1022.2 -
02/08:30am 19.7 17.2 8.0 46 6.0 ENE 11 15 6 8 1022.3 - -
02/08:00am 19.0 16.4 7.8 48 5.7 SSE 11 19 6 10 1022.4 - -
02/07:30am 18.5 16.4 8.1 50 5.3 S 9 13 5 7 1022.2 - -
02/07:00am 17.1 15.0 8.2 56 4.5 SSW 9 11 5 6 1022.0 - -
02/06:30am 15.8 15.6 9.2 65 3.4 CALM 0 0 0 0 1021.7 - -
02/06:00am 14.5 13.3 9.6 72 2.5 SSW 6 7 3 4 1021.3 1021.3 -
02/05:30am 14.2 12.8 9.5 73 2.4 S 7 9 4 5 1020.8 - -
02/05:00am 14.3 14.2 9.4 72 2.5 CALM 0 0 0 0 1020.5 - -
02/04:30am 14.6 13.0 8.9 68 2.9 SSW 7 9 4 5 1020.1 - -
02/04:00am 14.8 13.0 9.3 69 2.8 SSW 9 11 5 6 1019.8 - -
02/03:30am 15.8 13.9 9.0 64 3.5 SSW 9 11 5 6 1019.6 - -
02/03:00am 16.1 14.2 8.9 62 3.7 S 9 11 5 6 1019.5 1019.4 -
02/02:30am 16.6 14.3 9.0 61 3.9 S 11 15 6 8 1019.6 - -
02/02:00am 17.5 14.8 8.8 56 4.5 S 13 15 7 8 1019.8 - -
02/01:30am 17.7 15.8 9.0 56 4.5 SSE 9 13 5 7 1019.7 - -
02/01:00am 17.9 15.7 9.3 57 4.5 SSE 11 13 6 7 1020.0 - -
02/12:30am 17.9 15.7 9.5 58 4.4 S 11 15 6 8 1020.0 - -
02/12:00am 17.9 15.5 10.0 60 4.2 SSE 13 15 7 8 1020.1 1020.0 -
 
Date/Time
EST
Tmp

°C
App
Tmp
°C
Dew
Point
°C
Rel
Hum
%
Delta-T

°C
Wind Press
QNH
hPa
Press
MSL
hPa
Rain
since
9 am
mm
Dir
 
Spd
km/h
Gust
km/h
Spd
kts
Gust
kts
01/11:30pm 18.0 15.3 10.3 60 4.1 S 15 17 8 9 1019.9 - -
01/11:00pm 18.8 16.7 11.1 61 4.2 S 13 17 7 9 1019.6 - -
01/10:30pm 19.1 16.4 11.6 62 4.1 S 17 22 9 12 1019.3 - -
01/10:00pm 19.5 17.8 12.3 63 4.0 S 13 17 7 9 1019.0 - -
01/09:30pm 20.2 17.5 13.0 63 4.1 SE 19 28 10 15 1018.5 - -
01/09:00pm 20.9 17.5 13.6 63 4.2 SSE 24 32 13 17 1018.1 1018.0 -
01/08:30pm 21.6 19.9 14.6 64 4.1 SE 17 26 9 14 1017.5 - -
01/08:00pm 21.8 20.1 16.2 70 3.4 ESE 20 30 11 16 1016.6 - -
01/07:30pm 23.0 21.0 16.4 66 4.0 E 22 30 12 16 1015.8 - -
01/07:00pm 24.5 21.2 16.1 59 5.1 ENE 28 41 15 22 1014.5 - -
01/06:38pm 26.5 20.8 8.4 31 9.8 E 28 37 15 20 1013.9 - -
01/06:30pm 29.0 25.1 1.1 16 13.5 SW 11 15 6 8 1013.1 - -
01/06:00pm 30.2 24.5 0.3 14 14.4 SW 20 26 11 14 1012.2 1012.1 -
01/05:30pm 31.4 25.9 0.7 14 15.0 SSW 19 33 10 18 1011.6 - -
01/05:00pm 32.9 27.4 1.9 14 15.6 SSW 20 32 11 17 1011.2 - -
01/04:30pm 33.0 27.7 1.8 14 15.7 SW 19 28 10 15 1011.0 - -
01/04:00pm 34.0 30.6 3.8 15 15.8 SW 11 20 6 11 1011.0 - -
01/03:30pm 33.4 27.8 3.5 15 15.5 WSW 22 30 12 16 1011.0 - -
01/03:00pm 33.8 27.5 3.7 15 15.7 W 26 37 14 20 1011.3 1011.2 0.0
01/02:30pm 34.3 28.6 2.9 14 16.2 SW 22 32 12 17 1011.4 - -
01/02:00pm 34.0 29.9 4.1 15 15.7 SW 15 28 8 15 1011.6 - -
01/01:30pm 33.8 27.5 4.0 15 15.6 WSW 26 35 14 19 1012.1 - -
01/01:00pm 33.5 29.1 10.3 24 13.4 W 24 33 13 18 1012.5 - -
01/12:30pm 32.3 28.7 10.4 26 12.6 WNW 20 30 11 16 1013.0 - -
01/12:00pm - - - - - - - - - - - - -
01/11:30am 30.5 26.2 10.8 29 11.3 WNW 24 33 13 18 1014.4 - -
01/11:00am - - - - - - - - - - - - -
01/10:30am - - - - - NW 19 26 10 14 - - 0.0
01/10:00am 27.5 24.0 12.1 38 8.9 NW 22 30 12 16 1016.3 - 0.0
01/09:30am 25.6 22.0 11.9 42 7.8 NW 22 33 12 18 1017.0 - 0.0
01/09:00am 24.8 21.6 11.8 44 7.4 NW 20 28 11 15 1017.4 1017.3 0.0
01/08:30am 23.1 20.1 11.9 49 6.3 NNW 19 26 10 14 1017.6 - 0.0
01/08:00am 20.5 20.3 13.5 64 4.0 WSW 7 9 4 5 1017.8 - 0.0
01/07:30am 17.1 16.4 14.3 83 1.6 SSW 11 13 6 7 1017.8 - 0.0
01/07:00am 14.3 15.1 13.6 96 0.4 S 2 7 1 4 1017.4 - 0.0
01/06:30am 12.8 12.2 12.2 96 0.3 S 7 9 4 5 1017.3 - 0.0
01/06:00am 10.9 11.1 10.7 99 0.1 CALM 0 0 0 0 1016.9 1016.8 0.0
01/05:30am 11.1 11.2 10.3 95 0.4 CALM 0 0 0 0 1016.6 - 0.0
01/05:24am 10.7 10.9 10.5 99 0.1 CALM 0 0 0 0 1016.6 - 0.0
01/05:09am 10.7 10.9 10.5 99 0.1 CALM 0 0 0 0 1016.4 - 0.0
01/05:04am 11.0 10.8 10.6 97 0.2 S 2 7 1 4 1016.4 - 0.0
01/05:00am 10.8 10.2 10.4 97 0.2 S 4 7 2 4 1016.4 - 0.0
01/04:30am 11.3 11.6 10.9 97 0.2 CALM 0 0 0 0 1016.2 - 0.0
01/04:00am 11.7 11.7 11.1 96 0.3 S 2 7 1 4 1016.1 - 0.0
01/03:30am 12.2 12.7 11.6 96 0.3 CALM 0 0 0 0 1016.1 - 0.0
01/03:06am 13.3 14.1 12.7 96 0.3 CALM 0 6 0 3 1016.1 - 0.0
01/03:00am 13.2 14.0 12.6 96 0.3 CALM 0 6 0 3 1016.1 1016.0 0.0
01/02:53am 13.2 14.0 12.6 96 0.3 CALM 0 4 0 2 1016.0 - 0.0
01/02:30am 13.0 12.6 12.4 96 0.3 S 6 7 3 4 1016.2 - 0.0
01/02:06am 12.6 13.3 12.2 97 0.2 CALM 0 0 0 0 1016.5 - 0.0
01/02:00am 13.1 13.9 12.4 95 0.4 CALM 0 0 0 0 1016.5 - 0.0
01/01:30am 13.8 14.8 13.3 97 0.3 CALM 0 0 0 0 1016.8 - 0.0
01/01:00am 14.6 15.8 13.7 94 0.5 CALM 0 0 0 0 1016.9 - 0.0
01/12:30am 14.1 15.1 13.2 94 0.5 CALM 0 0 0 0 1017.3 - 0.0
01/12:00am 14.1 15.2 13.4 96 0.4 CALM 0 6 0 3 1017.5 1017.4 0.0
 
Date/Time
EST
Tmp

°C
App
Tmp
°C
Dew
Point
°C
Rel
Hum
%
Delta-T

°C
Wind Press
QNH
hPa
Press
MSL
hPa
Rain
since
9 am
mm
Dir
 
Spd
km/h
Gust
km/h
Spd
kts
Gust
kts
30/11:30pm 14.9 14.3 13.6 92 0.7 S 9 9 5 5 1017.8 - 0.0
30/11:00pm 17.3 16.8 14.9 86 1.4 S 11 11 6 6 1017.8 - 0.0
30/10:30pm 17.0 16.7 14.4 85 1.5 S 9 11 5 6 1017.7 - 0.0
30/10:00pm 18.0 17.7 14.5 80 2.0 S 9 9 5 5 1017.7 - 0.0
30/09:30pm 18.1 17.9 14.6 80 2.0 SSE 9 11 5 6 1017.7 - 0.0
30/09:00pm 18.5 18.2 14.5 77 2.3 SSE 9 11 5 6 1017.9 1017.8 0.0
30/08:30pm 19.6 19.1 14.8 74 2.8 E 11 13 6 7 1017.7 - 0.0
30/08:00pm 20.3 19.3 14.6 70 3.3 E 13 15 7 8 1017.2 - 0.0
30/07:30pm 21.1 19.7 14.4 65 3.9 E 15 19 8 10 1017.0 - 0.0
30/07:00pm 21.7 19.7 14.0 61 4.5 E 17 22 9 12 1016.7 - 0.0
30/06:30pm 22.3 19.9 14.5 61 4.6 E 20 26 11 14 1016.4 - 0.0
30/06:00pm 23.3 20.9 14.5 57 5.2 ENE 20 28 11 15 1016.0 1015.9 0.0
30/05:30pm 24.3 21.4 14.1 53 6.0 ENE 22 28 12 15 1015.7 - 0.0
30/05:00pm 25.6 21.8 13.7 47 7.0 ENE 26 32 14 17 1015.5 - 0.0
30/04:30pm 26.7 22.9 13.7 44 7.7 ENE 26 32 14 17 1015.3 - 0.0
30/04:00pm 27.7 23.4 13.3 41 8.5 ENE 28 32 15 17 1015.3 - 0.0
30/03:30pm 28.7 25.1 12.9 37 9.3 ENE 24 32 13 17 1015.3 - 0.0
30/03:00pm 28.7 25.5 12.0 35 9.7 NE 20 30 11 16 1015.5 1015.4 0.0
30/02:30pm 30.5 28.6 9.0 26 12.0 E 9 15 5 8 1015.6 - 0.0
30/02:00pm 29.5 27.5 8.6 27 11.5 SSE 9 13 5 7 1015.9 - 0.0
30/01:30pm 29.3 27.0 9.1 28 11.2 NNE 11 19 6 10 1016.3 - 0.0
30/01:00pm 28.6 27.3 10.1 31 10.4 NNW 7 17 4 9 1016.9 - 0.0
30/12:30pm 27.9 26.0 10.5 33 9.8 NNW 11 19 6 10 1017.5 - 0.0
30/12:00pm 28.0 26.0 10.2 33 10.0 NNW 11 20 6 11 1018.0 1017.9 0.0
30/11:30am 26.9 24.5 10.2 35 9.3 N 13 20 7 11 1018.6 - 0.0
30/11:00am 26.2 23.6 9.2 34 9.3 WNW 13 22 7 12 1019.2 - 0.0
30/10:30am 25.6 22.7 9.8 37 8.7 NW 15 22 8 12 1019.5 - 0.0
30/10:00am 24.4 20.7 9.3 38 8.2 NNW 19 26 10 14 1020.2 - 0.0
30/09:30am 24.2 20.4 9.2 38 8.1 NW 19 28 10 15 1020.6 - 0.0
30/09:00am 22.5 20.5 11.4 49 6.2 NW 13 17 7 9 1020.8 1020.8 0.0
30/08:30am 20.9 20.1 13.0 60 4.5 NW 9 13 5 7 1021.0 - 0.0
30/08:00am 17.9 17.7 12.9 72 2.8 SW 6 9 3 5 1021.0 - 0.0
30/07:30am 16.6 17.3 13.4 81 1.8 SSW 2 7 1 4 1021.0 - 0.0
30/07:00am 14.3 15.0 12.1 87 1.2 CALM 0 0 0 0 1020.9 - 0.0
30/06:30am 11.9 12.2 10.9 94 0.5 CALM 0 0 0 0 1020.6 - 0.0
30/06:00am 9.9 9.8 9.3 96 0.3 CALM 0 0 0 0 1020.2 1020.1 0.0
30/05:30am 9.5 9.3 9.1 97 0.2 CALM 0 0 0 0 1020.0 - 0.0
30/05:16am 9.8 9.6 9.2 96 0.3 CALM 0 0 0 0 1019.8 - 0.0
30/05:00am 9.9 9.8 9.3 96 0.3 CALM 0 0 0 0 1019.7 - 0.0
30/04:54am 9.9 9.8 9.5 97 0.2 CALM 0 0 0 0 1019.6 - 0.0
30/04:44am 10.5 10.5 9.9 96 0.3 CALM 0 0 0 0 1019.6 - 0.0
30/04:30am 10.4 10.5 10.0 97 0.2 CALM 0 0 0 0 1019.4 - 0.0
30/04:14am 9.8 9.7 9.4 97 0.2 CALM 0 0 0 0 1019.3 - 0.0
30/04:08am 10.1 10.0 9.5 96 0.3 CALM 0 0 0 0 1019.2 - 0.0
30/04:00am 10.4 10.4 9.8 96 0.3 CALM 0 0 0 0 1019.2 - 0.0
30/03:38am 10.4 10.5 10.0 97 0.2 CALM 0 0 0 0 1019.1 - 0.0
30/03:30am 11.0 11.2 10.6 97 0.2 CALM 0 0 0 0 1019.1 - 0.0
30/03:26am 11.2 11.4 10.4 95 0.4 CALM 0 0 0 0 1019.0 - 0.0
30/03:07am 11.1 11.3 10.7 97 0.2 CALM 0 0 0 0 1019.0 - 0.0
30/03:00am 11.3 11.5 10.7 96 0.3 CALM 0 0 0 0 1018.9 1018.8 0.0
30/02:53am 11.6 12.0 11.2 97 0.2 CALM 0 0 0 0 1018.9 - 0.0
30/02:30am 10.7 10.8 10.1 96 0.3 CALM 0 0 0 0 1019.0 - 0.0
30/02:17am 10.9 11.1 10.5 97 0.2 CALM 0 0 0 0 1019.1 - 0.0
30/02:00am 12.1 12.6 11.5 96 0.3 CALM 0 0 0 0 1019.2 - 0.0
30/01:30am 11.3 11.6 10.9 97 0.2 CALM 0 0 0 0 1019.2 - 0.0
30/01:00am 12.1 12.6 11.7 97 0.2 CALM 0 0 0 0 1019.4 - 0.0
30/12:30am 12.7 13.3 11.8 94 0.5 CALM 0 0 0 0 1019.5 - 0.0
30/12:00am 12.7 13.2 11.6 93 0.6 CALM 0 0 0 0 1019.6 1019.5 0.0
 
Date/Time
EST
Tmp

°C
App
Tmp
°C
Dew
Point
°C
Rel
Hum
%
Delta-T

°C
Wind Press
QNH
hPa
Press
MSL
hPa
Rain
since
9 am
mm
Dir
 
Spd
km/h
Gust
km/h
Spd
kts
Gust
kts
29/11:30pm 13.3 13.9 12.0 92 0.7 CALM 0 0 0 0 1019.5 - 0.0
29/11:00pm 13.5 14.1 11.8 89 0.9 CALM 0 0 0 0 1019.6 - 0.0
29/10:30pm 13.8 12.9 11.5 86 1.2 SSW 7 9 4 5 1019.5 - 0.0
29/10:00pm 16.1 15.0 11.9 76 2.3 S 9 11 5 6 1019.4 - 0.0
29/09:30pm 15.9 14.5 12.2 78 2.0 S 11 13 6 7 1019.3 - 0.0
29/09:00pm 18.3 19.0 12.3 68 3.3 CALM 0 0 0 0 1019.0 1018.9 0.0
29/08:30pm 18.6 17.4 12.9 69 3.2 ENE 11 15 6 8 1018.9 - 0.0
29/08:00pm 19.3 17.4 12.9 66 3.6 ENE 15 19 8 10 1018.8 - 0.0
29/07:30pm 19.8 18.2 12.9 64 3.9 E 13 19 7 10 1018.5 - 0.0
29/07:00pm 20.4 18.0 12.8 61 4.3 ENE 17 24 9 13 1018.2 - 0.0
29/06:30pm 21.0 18.0 12.7 59 4.7 ENE 20 30 11 16 1017.8 - 0.0
29/06:00pm 22.1 19.3 12.6 55 5.4 ENE 19 26 10 14 1017.3 1017.2 0.0
29/05:30pm 23.1 19.9 13.0 53 5.8 ENE 22 32 12 17 1016.9 - 0.0
29/05:00pm 24.3 20.7 13.1 49 6.5 ENE 24 32 13 17 1016.4 - 0.0
29/04:30pm 25.3 21.7 12.9 46 7.2 NE 24 32 13 17 1016.3 - 0.0
29/04:00pm 26.3 23.2 12.2 41 8.1 ENE 20 28 11 15 1016.1 - 0.0
29/03:30pm 27.3 25.6 11.3 37 9.1 NNE 11 19 6 10 1016.1 - 0.0
29/03:00pm 27.3 25.9 10.9 36 9.3 E 9 17 5 9 1016.0 1015.9 0.0
29/02:30pm 27.7 26.2 8.4 29 10.5 ESE 6 19 3 10 1016.1 - 0.0

Latest Capital City Observations: Canberra | Sydney | Melbourne | Brisbane | Adelaide | Perth | Hobart | Darwin

Other Formats:

Comma delimited format used in spreadsheet applications
http://www.bom.gov.au/fwo/IDQ60901/IDQ60901.94568.axf

JavaScript Object Notation format (JSON) in row-major order
http://www.bom.gov.au/fwo/IDQ60901/IDQ60901.94568.json